sensor_id;sensor_type;location;lat;lon;timestamp;pressure;altitude;pressure_sealevel;temperature;humidity
38630;BME280;24384;51.988;4.644;2023-07-13T00:00:42;101388.66;;;17.03;98.16
38630;BME280;24384;51.988;4.644;2023-07-13T00:03:08;101394.00;;;17.03;97.49
38630;BME280;24384;51.988;4.644;2023-07-13T00:05:33;101400.47;;;16.97;97.83
38630;BME280;24384;51.988;4.644;2023-07-13T00:07:59;101391.00;;;16.91;97.46
38630;BME280;24384;51.988;4.644;2023-07-13T00:10:24;101394.78;;;16.87;97.85
38630;BME280;24384;51.988;4.644;2023-07-13T00:12:49;101390.56;;;16.81;98.76
38630;BME280;24384;51.988;4.644;2023-07-13T00:15:24;101394.00;;;16.83;98.77
38630;BME280;24384;51.988;4.644;2023-07-13T00:17:50;101391.88;;;16.92;98.45
38630;BME280;24384;51.988;4.644;2023-07-13T00:20:16;101389.44;;;16.87;97.63
38630;BME280;24384;51.988;4.644;2023-07-13T00:22:42;101383.72;;;16.95;97.78
38630;BME280;24384;51.988;4.644;2023-07-13T00:25:10;101391.06;;;16.90;97.44
38630;BME280;24384;51.988;4.644;2023-07-13T00:27:36;101393.50;;;16.94;96.67
38630;BME280;24384;51.988;4.644;2023-07-13T00:30:02;101389.91;;;16.95;95.87
38630;BME280;24384;51.988;4.644;2023-07-13T00:32:27;101393.50;;;16.94;96.71
38630;BME280;24384;51.988;4.644;2023-07-13T00:34:54;101398.81;;;16.94;95.78
38630;BME280;24384;51.988;4.644;2023-07-13T00:37:19;101395.31;;;16.94;96.09
38630;BME280;24384;51.988;4.644;2023-07-13T00:39:44;101396.56;;;17.04;95.50
38630;BME280;24384;51.988;4.644;2023-07-13T00:42:10;101389.66;;;17.00;95.70
38630;BME280;24384;51.988;4.644;2023-07-13T00:44:36;101387.63;;;17.05;95.24
38630;BME280;24384;51.988;4.644;2023-07-13T00:47:02;101391.16;;;17.06;95.76
38630;BME280;24384;51.988;4.644;2023-07-13T00:49:29;101388.25;;;17.10;95.00
38630;BME280;24384;51.988;4.644;2023-07-13T00:51:59;101386.28;;;17.14;95.02
38630;BME280;24384;51.988;4.644;2023-07-13T00:54:34;101391.84;;;17.09;95.05
38630;BME280;24384;51.988;4.644;2023-07-13T00:57:03;101395.00;;;17.00;94.52
38630;BME280;24384;51.988;4.644;2023-07-13T00:59:30;101398.28;;;17.05;94.54
38630;BME280;24384;51.988;4.644;2023-07-13T01:01:56;101401.03;;;17.04;94.88
38630;BME280;24384;51.988;4.644;2023-07-13T01:04:24;101391.56;;;16.98;94.78
38630;BME280;24384;51.988;4.644;2023-07-13T01:06:50;101400.88;;;16.89;95.10
38630;BME280;24384;51.988;4.644;2023-07-13T01:09:16;101396.56;;;16.87;95.64
38630;BME280;24384;51.988;4.644;2023-07-13T01:11:41;101394.63;;;16.90;95.14
38630;BME280;24384;51.988;4.644;2023-07-13T01:14:07;101401.50;;;16.94;95.76
38630;BME280;24384;51.988;4.644;2023-07-13T01:16:34;101395.47;;;16.91;96.04
38630;BME280;24384;51.988;4.644;2023-07-13T01:19:01;101399.72;;;16.95;95.66
38630;BME280;24384;51.988;4.644;2023-07-13T01:21:29;101401.94;;;16.85;96.19
38630;BME280;24384;51.988;4.644;2023-07-13T01:23:57;101409.88;;;16.87;96.38
38630;BME280;24384;51.988;4.644;2023-07-13T01:26:22;101403.88;;;16.81;97.06
38630;BME280;24384;51.988;4.644;2023-07-13T01:28:48;101407.25;;;16.85;97.25
38630;BME280;24384;51.988;4.644;2023-07-13T01:31:13;101408.59;;;16.76;97.94
38630;BME280;24384;51.988;4.644;2023-07-13T01:33:39;101410.59;;;16.71;98.23
38630;BME280;24384;51.988;4.644;2023-07-13T01:36:09;101413.41;;;16.68;99.28
38630;BME280;24384;51.988;4.644;2023-07-13T01:38:35;101411.94;;;16.62;99.16
38630;BME280;24384;51.988;4.644;2023-07-13T01:41:01;101416.81;;;16.72;99.07
38630;BME280;24384;51.988;4.644;2023-07-13T01:43:27;101419.72;;;16.67;99.02
38630;BME280;24384;51.988;4.644;2023-07-13T01:45:53;101417.81;;;16.52;98.74
38630;BME280;24384;51.988;4.644;2023-07-13T01:48:18;101420.47;;;16.52;98.73
38630;BME280;24384;51.988;4.644;2023-07-13T01:50:45;101427.56;;;16.51;97.20
38630;BME280;24384;51.988;4.644;2023-07-13T01:53:11;101422.97;;;16.55;96.64
38630;BME280;24384;51.988;4.644;2023-07-13T01:55:37;101428.16;;;16.58;95.51
38630;BME280;24384;51.988;4.644;2023-07-13T01:58:04;101426.56;;;16.54;95.08
38630;BME280;24384;51.988;4.644;2023-07-13T02:00:29;101429.44;;;16.49;94.43
38630;BME280;24384;51.988;4.644;2023-07-13T02:02:55;101430.44;;;16.46;92.82
38630;BME280;24384;51.988;4.644;2023-07-13T02:05:21;101434.69;;;16.51;92.09
38630;BME280;24384;51.988;4.644;2023-07-13T02:07:46;101428.97;;;16.41;90.98
38630;BME280;24384;51.988;4.644;2023-07-13T02:10:12;101431.41;;;16.45;90.30
38630;BME280;24384;51.988;4.644;2023-07-13T02:12:38;101430.31;;;16.50;91.31
38630;BME280;24384;51.988;4.644;2023-07-13T02:15:04;101431.56;;;16.42;91.80
38630;BME280;24384;51.988;4.644;2023-07-13T02:17:31;101440.72;;;16.54;92.27
38630;BME280;24384;51.988;4.644;2023-07-13T02:19:57;101432.81;;;16.53;93.32
38630;BME280;24384;51.988;4.644;2023-07-13T02:22:22;101435.16;;;16.41;93.99
38630;BME280;24384;51.988;4.644;2023-07-13T02:24:49;101429.38;;;16.51;93.66
38630;BME280;24384;51.988;4.644;2023-07-13T02:27:14;101425.06;;;16.48;93.06
38630;BME280;24384;51.988;4.644;2023-07-13T02:29:41;101426.88;;;16.47;92.83
38630;BME280;24384;51.988;4.644;2023-07-13T02:32:07;101432.94;;;16.32;93.74
38630;BME280;24384;51.988;4.644;2023-07-13T02:34:33;101427.13;;;16.24;94.06
38630;BME280;24384;51.988;4.644;2023-07-13T02:36:59;101424.59;;;16.21;94.61
38630;BME280;24384;51.988;4.644;2023-07-13T02:39:24;101425.09;;;16.29;94.36
38630;BME280;24384;51.988;4.644;2023-07-13T02:41:49;101428.97;;;16.22;95.23
38630;BME280;24384;51.988;4.644;2023-07-13T02:44:15;101434.56;;;16.16;95.69
38630;BME280;24384;51.988;4.644;2023-07-13T02:46:41;101423.94;;;16.16;96.09
38630;BME280;24384;51.988;4.644;2023-07-13T02:49:06;101428.69;;;16.09;96.67
38630;BME280;24384;51.988;4.644;2023-07-13T02:51:32;101430.84;;;16.20;96.71
38630;BME280;24384;51.988;4.644;2023-07-13T02:54:03;101423.38;;;16.09;97.40
38630;BME280;24384;51.988;4.644;2023-07-13T02:56:30;101422.66;;;16.05;96.75
38630;BME280;24384;51.988;4.644;2023-07-13T02:58:56;101429.97;;;16.00;97.96
38630;BME280;24384;51.988;4.644;2023-07-13T03:01:22;101425.41;;;16.04;97.54
38630;BME280;24384;51.988;4.644;2023-07-13T03:03:51;101431.41;;;16.07;98.25
38630;BME280;24384;51.988;4.644;2023-07-13T03:06:17;101432.91;;;15.94;98.71
38630;BME280;24384;51.988;4.644;2023-07-13T03:08:43;101431.56;;;16.04;98.91
38630;BME280;24384;51.988;4.644;2023-07-13T03:11:12;101436.25;;;15.99;99.37
38630;BME280;24384;51.988;4.644;2023-07-13T03:13:39;101433.72;;;15.96;99.76
38630;BME280;24384;51.988;4.644;2023-07-13T03:16:05;101439.19;;;15.93;99.07
38630;BME280;24384;51.988;4.644;2023-07-13T03:18:31;101436.31;;;15.98;99.48
38630;BME280;24384;51.988;4.644;2023-07-13T03:20:57;101436.06;;;15.83;100.00
38630;BME280;24384;51.988;4.644;2023-07-13T03:23:23;101431.34;;;15.90;100.00
38630;BME280;24384;51.988;4.644;2023-07-13T03:25:48;101430.47;;;15.89;100.00
38630;BME280;24384;51.988;4.644;2023-07-13T03:28:14;101440.41;;;15.86;100.00
38630;BME280;24384;51.988;4.644;2023-07-13T03:30:40;101442.47;;;15.79;100.00
38630;BME280;24384;51.988;4.644;2023-07-13T03:33:05;101445.06;;;15.81;100.00
38630;BME280;24384;51.988;4.644;2023-07-13T03:35:31;101436.63;;;15.71;100.00
38630;BME280;24384;51.988;4.644;2023-07-13T03:37:58;101442.59;;;15.76;100.00
38630;BME280;24384;51.988;4.644;2023-07-13T03:40:24;101445.25;;;15.76;100.00
38630;BME280;24384;51.988;4.644;2023-07-13T03:42:50;101434.81;;;15.71;100.00
38630;BME280;24384;51.988;4.644;2023-07-13T03:45:15;101441.75;;;15.75;100.00
38630;BME280;24384;51.988;4.644;2023-07-13T03:47:40;101439.03;;;15.77;100.00
38630;BME280;24384;51.988;4.644;2023-07-13T03:50:06;101446.09;;;15.76;100.00
38630;BME280;24384;51.988;4.644;2023-07-13T03:52:32;101445.13;;;15.79;100.00
38630;BME280;24384;51.988;4.644;2023-07-13T03:54:57;101451.31;;;15.80;100.00
38630;BME280;24384;51.988;4.644;2023-07-13T03:57:23;101453.28;;;15.74;100.00
38630;BME280;24384;51.988;4.644;2023-07-13T03:59:48;101458.69;;;15.73;100.00
38630;BME280;24384;51.988;4.644;2023-07-13T04:02:13;101457.28;;;15.85;100.00
38630;BME280;24384;51.988;4.644;2023-07-13T04:04:39;101458.88;;;15.89;100.00
38630;BME280;24384;51.988;4.644;2023-07-13T04:07:06;101464.34;;;15.86;100.00
38630;BME280;24384;51.988;4.644;2023-07-13T04:09:33;101461.34;;;15.73;100.00
38630;BME280;24384;51.988;4.644;2023-07-13T04:11:58;101463.88;;;15.76;100.00
38630;BME280;24384;51.988;4.644;2023-07-13T04:14:24;101464.06;;;15.71;100.00
38630;BME280;24384;51.988;4.644;2023-07-13T04:16:49;101467.00;;;15.86;100.00
38630;BME280;24384;51.988;4.644;2023-07-13T04:19:14;101472.88;;;15.92;100.00
38630;BME280;24384;51.988;4.644;2023-07-13T04:21:40;101472.53;;;16.00;100.00
38630;BME280;24384;51.988;4.644;2023-07-13T04:24:05;101472.25;;;16.06;100.00
38630;BME280;24384;51.988;4.644;2023-07-13T04:26:31;101476.09;;;16.01;100.00
38630;BME280;24384;51.988;4.644;2023-07-13T04:28:57;101473.41;;;16.01;100.00
38630;BME280;24384;51.988;4.644;2023-07-13T04:31:22;101482.88;;;15.87;100.00
38630;BME280;24384;51.988;4.644;2023-07-13T04:33:50;101478.28;;;15.91;100.00
38630;BME280;24384;51.988;4.644;2023-07-13T04:36:16;101473.84;;;15.91;100.00
38630;BME280;24384;51.988;4.644;2023-07-13T04:38:42;101481.34;;;16.02;100.00
38630;BME280;24384;51.988;4.644;2023-07-13T04:41:08;101489.81;;;16.10;100.00
38630;BME280;24384;51.988;4.644;2023-07-13T04:43:34;101471.69;;;16.19;100.00
38630;BME280;24384;51.988;4.644;2023-07-13T04:46:05;101495.34;;;16.25;100.00
38630;BME280;24384;51.988;4.644;2023-07-13T04:48:31;101486.56;;;16.42;100.00
38630;BME280;24384;51.988;4.644;2023-07-13T04:50:57;101489.25;;;16.42;100.00
38630;BME280;24384;51.988;4.644;2023-07-13T04:53:23;101491.34;;;16.35;100.00
38630;BME280;24384;51.988;4.644;2023-07-13T04:55:49;101488.97;;;16.29;100.00
38630;BME280;24384;51.988;4.644;2023-07-13T04:58:14;101486.88;;;16.55;100.00
38630;BME280;24384;51.988;4.644;2023-07-13T05:00:40;101492.84;;;16.60;100.00
38630;BME280;24384;51.988;4.644;2023-07-13T05:03:05;101492.72;;;16.80;100.00
38630;BME280;24384;51.988;4.644;2023-07-13T05:05:31;101493.53;;;16.82;100.00
38630;BME280;24384;51.988;4.644;2023-07-13T05:07:57;101492.81;;;16.98;100.00
38630;BME280;24384;51.988;4.644;2023-07-13T05:10:22;101497.31;;;16.96;100.00
38630;BME280;24384;51.988;4.644;2023-07-13T05:12:47;101499.47;;;17.07;100.00
38630;BME280;24384;51.988;4.644;2023-07-13T05:15:13;101506.06;;;17.17;100.00
38630;BME280;24384;51.988;4.644;2023-07-13T05:17:38;101504.41;;;17.14;100.00
38630;BME280;24384;51.988;4.644;2023-07-13T05:20:06;101504.97;;;17.39;100.00
38630;BME280;24384;51.988;4.644;2023-07-13T05:22:32;101509.91;;;17.46;100.00
38630;BME280;24384;51.988;4.644;2023-07-13T05:24:57;101515.00;;;17.51;100.00
38630;BME280;24384;51.988;4.644;2023-07-13T05:27:23;101507.63;;;17.74;100.00
38630;BME280;24384;51.988;4.644;2023-07-13T05:29:48;101509.88;;;17.99;100.00
38630;BME280;24384;51.988;4.644;2023-07-13T05:32:14;101507.53;;;17.93;100.00
38630;BME280;24384;51.988;4.644;2023-07-13T05:34:39;101516.25;;;17.79;99.78
38630;BME280;24384;51.988;4.644;2023-07-13T05:37:04;101513.22;;;17.69;99.65
38630;BME280;24384;51.988;4.644;2023-07-13T05:39:30;101518.28;;;17.56;100.00
38630;BME280;24384;51.988;4.644;2023-07-13T05:41:55;101521.28;;;17.67;100.00
38630;BME280;24384;51.988;4.644;2023-07-13T05:44:20;101530.78;;;17.56;100.00
38630;BME280;24384;51.988;4.644;2023-07-13T05:46:46;101529.13;;;17.70;100.00
38630;BME280;24384;51.988;4.644;2023-07-13T05:49:11;101530.69;;;17.75;100.00
38630;BME280;24384;51.988;4.644;2023-07-13T05:51:37;101529.19;;;17.86;100.00
38630;BME280;24384;51.988;4.644;2023-07-13T05:54:02;101537.19;;;17.86;100.00
38630;BME280;24384;51.988;4.644;2023-07-13T05:56:27;101540.97;;;18.00;100.00
38630;BME280;24384;51.988;4.644;2023-07-13T05:58:52;101544.69;;;18.13;100.00
38630;BME280;24384;51.988;4.644;2023-07-13T06:01:18;101542.03;;;18.13;100.00
38630;BME280;24384;51.988;4.644;2023-07-13T06:03:45;101535.81;;;18.13;99.65
38630;BME280;24384;51.988;4.644;2023-07-13T06:06:10;101532.31;;;18.12;99.03
38630;BME280;24384;51.988;4.644;2023-07-13T06:08:37;101551.47;;;18.03;98.61
38630;BME280;24384;51.988;4.644;2023-07-13T06:11:12;101548.03;;;17.66;92.94
38630;BME280;24384;51.988;4.644;2023-07-13T06:13:38;101550.84;;;17.28;92.34
38630;BME280;24384;51.988;4.644;2023-07-13T06:16:04;101559.75;;;17.09;90.60
38630;BME280;24384;51.988;4.644;2023-07-13T06:18:32;101563.09;;;16.76;90.79
38630;BME280;24384;51.988;4.644;2023-07-13T06:20:57;101565.09;;;16.33;93.52
38630;BME280;24384;51.988;4.644;2023-07-13T06:23:23;101565.78;;;16.18;96.54
38630;BME280;24384;51.988;4.644;2023-07-13T06:25:49;101577.75;;;16.07;98.62
38630;BME280;24384;51.988;4.644;2023-07-13T06:28:14;101574.72;;;15.96;98.66
38630;BME280;24384;51.988;4.644;2023-07-13T06:30:40;101577.66;;;15.90;98.64
38630;BME280;24384;51.988;4.644;2023-07-13T06:33:05;101584.53;;;15.94;99.40
38630;BME280;24384;51.988;4.644;2023-07-13T06:35:31;101584.81;;;15.88;100.00
38630;BME280;24384;51.988;4.644;2023-07-13T06:37:56;101576.34;;;15.99;100.00
38630;BME280;24384;51.988;4.644;2023-07-13T06:40:21;101582.56;;;15.99;100.00
38630;BME280;24384;51.988;4.644;2023-07-13T06:42:46;101581.63;;;16.21;100.00
38630;BME280;24384;51.988;4.644;2023-07-13T06:45:12;101585.06;;;16.23;100.00
38630;BME280;24384;51.988;4.644;2023-07-13T06:47:37;101585.19;;;16.20;100.00
38630;BME280;24384;51.988;4.644;2023-07-13T06:50:03;101584.72;;;16.31;100.00
38630;BME280;24384;51.988;4.644;2023-07-13T06:52:28;101587.50;;;16.27;99.65
38630;BME280;24384;51.988;4.644;2023-07-13T06:54:53;101587.66;;;16.43;96.80
38630;BME280;24384;51.988;4.644;2023-07-13T06:57:19;101591.94;;;16.67;98.68
38630;BME280;24384;51.988;4.644;2023-07-13T06:59:44;101585.63;;;16.88;99.05
38630;BME280;24384;51.988;4.644;2023-07-13T07:02:10;101586.44;;;16.90;99.11
38630;BME280;24384;51.988;4.644;2023-07-13T07:04:36;101586.72;;;17.21;99.53
38630;BME280;24384;51.988;4.644;2023-07-13T07:07:01;101579.88;;;17.51;100.00
38630;BME280;24384;51.988;4.644;2023-07-13T07:09:26;101578.94;;;18.05;99.87
38630;BME280;24384;51.988;4.644;2023-07-13T07:11:52;101584.72;;;18.47;96.27
38630;BME280;24384;51.988;4.644;2023-07-13T07:14:17;101576.66;;;18.80;93.57
38630;BME280;24384;51.988;4.644;2023-07-13T07:16:43;101591.69;;;19.14;91.75
38630;BME280;24384;51.988;4.644;2023-07-13T07:19:08;101589.84;;;19.31;91.43
38630;BME280;24384;51.988;4.644;2023-07-13T07:21:33;101586.22;;;19.32;90.97
38630;BME280;24384;51.988;4.644;2023-07-13T07:23:59;101595.47;;;19.26;89.19
38630;BME280;24384;51.988;4.644;2023-07-13T07:26:25;101589.50;;;19.21;90.66
38630;BME280;24384;51.988;4.644;2023-07-13T07:28:50;101587.34;;;19.12;91.43
38630;BME280;24384;51.988;4.644;2023-07-13T07:31:16;101591.53;;;19.02;91.49
38630;BME280;24384;51.988;4.644;2023-07-13T07:33:41;101588.84;;;19.02;90.22
38630;BME280;24384;51.988;4.644;2023-07-13T07:36:06;101591.25;;;19.06;90.76
38630;BME280;24384;51.988;4.644;2023-07-13T07:38:32;101599.31;;;18.73;90.98
38630;BME280;24384;51.988;4.644;2023-07-13T07:40:57;101609.22;;;18.21;90.23
38630;BME280;24384;51.988;4.644;2023-07-13T07:43:23;101613.44;;;17.73;90.33
38630;BME280;24384;51.988;4.644;2023-07-13T07:45:48;101618.91;;;17.35;92.69
38630;BME280;24384;51.988;4.644;2023-07-13T07:48:14;101612.84;;;17.31;92.67
38630;BME280;24384;51.988;4.644;2023-07-13T07:50:39;101603.91;;;17.15;93.15
38630;BME280;24384;51.988;4.644;2023-07-13T07:53:06;101610.56;;;17.24;94.08
38630;BME280;24384;51.988;4.644;2023-07-13T07:55:35;101623.97;;;17.22;93.40
38630;BME280;24384;51.988;4.644;2023-07-13T07:58:01;101614.13;;;17.42;91.71
38630;BME280;24384;51.988;4.644;2023-07-13T08:00:27;101617.16;;;17.70;92.82
38630;BME280;24384;51.988;4.644;2023-07-13T08:02:55;101621.78;;;17.84;96.24
38630;BME280;24384;51.988;4.644;2023-07-13T08:05:20;101625.13;;;17.53;95.35
38630;BME280;24384;51.988;4.644;2023-07-13T08:07:46;101621.22;;;17.43;96.28
38630;BME280;24384;51.988;4.644;2023-07-13T08:10:11;101619.22;;;17.29;96.98
38630;BME280;24384;51.988;4.644;2023-07-13T08:12:38;101622.00;;;17.62;100.00
38630;BME280;24384;51.988;4.644;2023-07-13T08:15:04;101623.47;;;18.04;96.24
38630;BME280;24384;51.988;4.644;2023-07-13T08:17:30;101626.63;;;18.29;97.46
38630;BME280;24384;51.988;4.644;2023-07-13T08:19:55;101628.31;;;18.14;92.98
38630;BME280;24384;51.988;4.644;2023-07-13T08:22:21;101625.25;;;18.21;95.65
38630;BME280;24384;51.988;4.644;2023-07-13T08:24:46;101615.50;;;18.54;96.14
38630;BME280;24384;51.988;4.644;2023-07-13T08:27:20;101619.38;;;18.98;91.87
38630;BME280;24384;51.988;4.644;2023-07-13T08:29:47;101620.34;;;19.43;90.99
38630;BME280;24384;51.988;4.644;2023-07-13T08:32:13;101617.88;;;19.70;89.67
38630;BME280;24384;51.988;4.644;2023-07-13T08:34:39;101624.25;;;19.67;84.93
38630;BME280;24384;51.988;4.644;2023-07-13T08:37:04;101628.09;;;19.63;84.40
38630;BME280;24384;51.988;4.644;2023-07-13T08:39:31;101623.06;;;19.27;85.49
38630;BME280;24384;51.988;4.644;2023-07-13T08:42:05;101623.56;;;18.86;88.99
38630;BME280;24384;51.988;4.644;2023-07-13T08:44:43;101630.88;;;18.33;94.74
38630;BME280;24384;51.988;4.644;2023-07-13T08:47:14;101630.28;;;17.93;95.15
38630;BME280;24384;51.988;4.644;2023-07-13T08:49:41;101627.53;;;17.77;94.87
38630;BME280;24384;51.988;4.644;2023-07-13T08:52:20;101630.56;;;17.86;94.85
38630;BME280;24384;51.988;4.644;2023-07-13T08:54:52;101641.41;;;17.83;94.30
38630;BME280;24384;51.988;4.644;2023-07-13T08:57:25;101633.16;;;17.88;95.56
38630;BME280;24384;51.988;4.644;2023-07-13T08:59:55;101635.72;;;17.91;96.76
38630;BME280;24384;51.988;4.644;2023-07-13T09:02:33;101635.00;;;18.05;98.00
38630;BME280;24384;51.988;4.644;2023-07-13T09:05:18;101638.38;;;17.91;96.90
38630;BME280;24384;51.988;4.644;2023-07-13T09:08:04;101637.22;;;17.97;98.08
38630;BME280;24384;51.988;4.644;2023-07-13T09:10:49;101644.81;;;18.55;100.00
38630;BME280;24384;51.988;4.644;2023-07-13T09:13:41;101627.19;;;19.17;97.16
38630;BME280;24384;51.988;4.644;2023-07-13T09:16:09;101635.25;;;19.63;92.11
38630;BME280;24384;51.988;4.644;2023-07-13T09:18:39;101637.19;;;19.91;92.90
38630;BME280;24384;51.988;4.644;2023-07-13T09:21:11;101647.81;;;19.30;85.83
38630;BME280;24384;51.988;4.644;2023-07-13T09:23:38;101650.00;;;19.08;85.20
38630;BME280;24384;51.988;4.644;2023-07-13T09:26:19;101652.84;;;18.38;83.33
38630;BME280;24384;51.988;4.644;2023-07-13T09:28:48;101659.63;;;18.10;87.60
38630;BME280;24384;51.988;4.644;2023-07-13T09:31:26;101651.16;;;18.02;89.36
38630;BME280;24384;51.988;4.644;2023-07-13T09:33:54;101653.56;;;18.41;92.26
38630;BME280;24384;51.988;4.644;2023-07-13T09:36:31;101657.28;;;18.21;90.48
38630;BME280;24384;51.988;4.644;2023-07-13T09:39:30;101662.84;;;17.99;92.33
38630;BME280;24384;51.988;4.644;2023-07-13T09:42:17;101664.38;;;17.68;89.28
38630;BME280;24384;51.988;4.644;2023-07-13T09:44:56;101660.78;;;17.69;89.06
38630;BME280;24384;51.988;4.644;2023-07-13T09:47:25;101677.16;;;17.62;90.42
38630;BME280;24384;51.988;4.644;2023-07-13T09:50:02;101675.47;;;17.78;91.82
38630;BME280;24384;51.988;4.644;2023-07-13T09:52:42;101683.66;;;18.10;91.20
38630;BME280;24384;51.988;4.644;2023-07-13T09:55:37;101684.25;;;18.84;88.57
38630;BME280;24384;51.988;4.644;2023-07-13T09:58:04;101681.31;;;19.22;89.75
38630;BME280;24384;51.988;4.644;2023-07-13T10:00:30;101686.66;;;19.22;88.87
38630;BME280;24384;51.988;4.644;2023-07-13T10:03:16;101682.16;;;19.22;89.53
38630;BME280;24384;51.988;4.644;2023-07-13T10:05:44;101683.72;;;19.26;88.40
38630;BME280;24384;51.988;4.644;2023-07-13T10:08:30;101682.69;;;19.91;86.06
38630;BME280;24384;51.988;4.644;2023-07-13T10:11:12;101684.50;;;19.91;86.70
38630;BME280;24384;51.988;4.644;2023-07-13T10:13:42;101689.81;;;20.07;87.54
38630;BME280;24384;51.988;4.644;2023-07-13T10:16:09;101695.41;;;20.32;86.77
38630;BME280;24384;51.988;4.644;2023-07-13T10:18:43;101699.94;;;20.01;85.43
38630;BME280;24384;51.988;4.644;2023-07-13T10:21:16;101698.06;;;19.72;85.75
38630;BME280;24384;51.988;4.644;2023-07-13T10:23:43;101695.56;;;19.68;86.87
38630;BME280;24384;51.988;4.644;2023-07-13T10:26:16;101709.22;;;20.10;85.88
38630;BME280;24384;51.988;4.644;2023-07-13T10:28:45;101704.22;;;20.34;84.46
38630;BME280;24384;51.988;4.644;2023-07-13T10:31:14;101702.28;;;20.67;81.05
38630;BME280;24384;51.988;4.644;2023-07-13T10:33:41;101706.50;;;20.85;82.75
38630;BME280;24384;51.988;4.644;2023-07-13T10:36:31;101692.16;;;21.28;81.57
38630;BME280;24384;51.988;4.644;2023-07-13T10:38:59;101696.34;;;21.32;78.60
38630;BME280;24384;51.988;4.644;2023-07-13T10:41:27;101700.44;;;21.38;78.93
38630;BME280;24384;51.988;4.644;2023-07-13T10:43:55;101705.50;;;20.57;75.81
38630;BME280;24384;51.988;4.644;2023-07-13T10:46:24;101714.59;;;20.10;77.43
38630;BME280;24384;51.988;4.644;2023-07-13T10:48:57;101717.34;;;19.46;78.82
38630;BME280;24384;51.988;4.644;2023-07-13T10:51:26;101711.47;;;19.40;80.32
38630;BME280;24384;51.988;4.644;2023-07-13T10:54:15;101711.44;;;19.72;80.91
38630;BME280;24384;51.988;4.644;2023-07-13T10:56:42;101716.16;;;20.29;76.66
38630;BME280;24384;51.988;4.644;2023-07-13T10:59:14;101714.53;;;20.85;75.62
38630;BME280;24384;51.988;4.644;2023-07-13T11:04:19;101717.13;;;21.43;73.56
38630;BME280;24384;51.988;4.644;2023-07-13T11:06:47;101720.41;;;21.75;67.52
38630;BME280;24384;51.988;4.644;2023-07-13T11:11:58;101713.31;;;22.14;65.42
38630;BME280;24384;51.988;4.644;2023-07-13T11:14:41;101721.25;;;22.03;68.68
38630;BME280;24384;51.988;4.644;2023-07-13T11:20:10;101728.94;;;21.95;64.76
38630;BME280;24384;51.988;4.644;2023-07-13T11:25:31;101712.47;;;22.27;65.93
38630;BME280;24384;51.988;4.644;2023-07-13T11:30:39;101719.91;;;21.41;65.57
38630;BME280;24384;51.988;4.644;2023-07-13T11:33:14;101720.63;;;21.85;68.15
38630;BME280;24384;51.988;4.644;2023-07-13T11:36:03;101723.03;;;22.03;65.69
38630;BME280;24384;51.988;4.644;2023-07-13T11:38:37;101731.56;;;22.22;63.75
38630;BME280;24384;51.988;4.644;2023-07-13T11:41:06;101732.00;;;22.16;64.01
38630;BME280;24384;51.988;4.644;2023-07-13T11:43:32;101729.31;;;22.29;65.98
38630;BME280;24384;51.988;4.644;2023-07-13T11:46:12;101731.81;;;21.92;65.23
38630;BME280;24384;51.988;4.644;2023-07-13T11:48:37;101727.53;;;22.29;65.95
38630;BME280;24384;51.988;4.644;2023-07-13T11:51:04;101731.66;;;22.48;63.14
38630;BME280;24384;51.988;4.644;2023-07-13T11:53:45;101741.38;;;21.83;60.69
38630;BME280;24384;51.988;4.644;2023-07-13T11:56:11;101738.16;;;21.63;65.88
38630;BME280;24384;51.988;4.644;2023-07-13T11:58:37;101737.59;;;21.44;63.79
38630;BME280;24384;51.988;4.644;2023-07-13T12:01:03;101736.53;;;21.61;64.28
38630;BME280;24384;51.988;4.644;2023-07-13T12:03:33;101731.19;;;21.88;65.71
38630;BME280;24384;51.988;4.644;2023-07-13T12:06:05;101738.53;;;22.12;64.25
38630;BME280;24384;51.988;4.644;2023-07-13T12:08:37;101739.03;;;22.31;64.81
38630;BME280;24384;51.988;4.644;2023-07-13T12:11:09;101729.19;;;22.45;63.26
38630;BME280;24384;51.988;4.644;2023-07-13T12:13:37;101734.19;;;22.37;62.97
38630;BME280;24384;51.988;4.644;2023-07-13T12:16:15;101740.34;;;22.51;60.21
38630;BME280;24384;51.988;4.644;2023-07-13T12:18:43;101742.84;;;22.14;61.23
38630;BME280;24384;51.988;4.644;2023-07-13T12:21:16;101729.31;;;22.16;62.38
38630;BME280;24384;51.988;4.644;2023-07-13T12:23:43;101729.31;;;22.29;62.81
38630;BME280;24384;51.988;4.644;2023-07-13T12:26:09;101727.34;;;22.71;62.96
38630;BME280;24384;51.988;4.644;2023-07-13T12:28:39;101737.03;;;22.48;62.78
38630;BME280;24384;51.988;4.644;2023-07-13T12:33:48;101738.00;;;22.73;64.72
38630;BME280;24384;51.988;4.644;2023-07-13T12:36:15;101739.59;;;22.62;63.33
38630;BME280;24384;51.988;4.644;2023-07-13T12:38:41;101731.09;;;22.81;60.85
38630;BME280;24384;51.988;4.644;2023-07-13T12:41:08;101737.13;;;22.72;62.74
38630;BME280;24384;51.988;4.644;2023-07-13T12:43:36;101732.19;;;22.79;62.81
38630;BME280;24384;51.988;4.644;2023-07-13T12:46:17;101729.47;;;22.92;61.44
38630;BME280;24384;51.988;4.644;2023-07-13T12:48:43;101734.56;;;22.58;61.62
38630;BME280;24384;51.988;4.644;2023-07-13T12:51:12;101733.47;;;22.47;61.71
38630;BME280;24384;51.988;4.644;2023-07-13T12:53:47;101735.00;;;22.77;60.82
38630;BME280;24384;51.988;4.644;2023-07-13T12:56:19;101734.97;;;23.16;61.09
38630;BME280;24384;51.988;4.644;2023-07-13T12:58:46;101734.97;;;22.90;60.05
38630;BME280;24384;51.988;4.644;2023-07-13T13:01:17;101742.19;;;22.89;58.62
38630;BME280;24384;51.988;4.644;2023-07-13T13:03:50;101736.25;;;22.84;62.90
38630;BME280;24384;51.988;4.644;2023-07-13T13:06:28;101740.53;;;23.00;61.83
38630;BME280;24384;51.988;4.644;2023-07-13T13:08:58;101740.66;;;22.85;60.10